LFRC

Details ICAO LFRC (CER)
Name Cherbourg Maupertus
Region France
Timezone Europe/Paris (UTC+2.0)
Plans Departing 52
Arriving 71
Stats Elevation 459 ft / 140 m (AMSL)
Location 49.650151° -1.470264°
Runways 1
Magnetic Variation 0.645° W
Sunrise 2018-05-22 04:14:10 UTC / 2018-05-22 06:14:10 Local
Sunset 2018-05-22 19:53:47 UTC / 2018-05-22 21:53:47 Local
Advertisement - Login to hide

Runways

ID Width Length Bearing (true) Bearing (mag) Surface Threshold Offset Overrun Length
10 148 ft / 45 m 7,985 ft / 2,434 m 100.78° 101.42° Asphalt 0 ft / 0 m 0 ft / 0 m
28 148 ft / 45 m 7,985 ft / 2,434 m 280.80° 281.44° Asphalt 0 ft / 0 m 0 ft / 0 m

Approach Navaids

Runway Type Ident Frequency Range Bearing (true) Bearing (mag) Slope Elevation
28 Localiser MP 110.55 MHz 18 nm / 33 km 280.78° 281.42° - 459 ft / 140 m (AMSL)
28 Glidescope MP 110.55 MHz 10 nm / 19 km 280.79° 281.44° 3.00° 482 ft / 147 m (AMSL)
28 DME MP 110.55 MHz 18 nm / 33 km - - - 459 ft / 140 m (AMSL)

Map

Weather


0- 5 10 15 20 25 30 35+ Temperature / ° C

Clouds and Precipitation
Forecast for 2018-05-22 06:00 UTC. Updated 3 hours ago

Ground ~20,000 ft ~40,000 ft Winds

METAR

LFRC 220800Z AUTO 03007KT 360V060 CAVOK 15/10 Q1015

TAF

Not found

Frequencies

Tower 119.62 MHz CHERBOURG TWR
Approach 119.35 MHz DEAUVILLE APP
Warning: Do not use this data for real-world aviation or navigation. No guarantee of current accuracy is given.